Howell, Arkansas
Current Conditions -  °F | °C
As of 6:58 AM on Tuesday 21 Oct 2014 (Local Time) from KSRC Reporting Station
Haze Haze  
Wind Chill: 54°   Ceiling: Unl
Heat Index: 54°   Visibility: 3mi
Dew Point: 52°   Wind: 5mph
Humidity: 94%   Direction: 350°N
Pressure: 30.09"   Gusts: NA
Location:  35.11°N, 91.25°W
Report Text: KSRC 211158Z AUTO 35004KT 3SM BR CLR 12/11 A3009 RMK AO2 TSNO
Loading
Personal Weather Stations






























Interactive Weather Map
Tropical Storm Tracking
New forecast layout! Learn more

10-Day Weather Forecast

Advertisements
Track Severe Weather on mobile